sensor_id;sensor_type;location;lat;lon;timestamp;temperature;humidity
19952;DHT22;10137;49.406;19.484;2024-02-26T00:01:49;6.60;99.90
19952;DHT22;10137;49.406;19.484;2024-02-26T00:04:18;6.60;99.90
19952;DHT22;10137;49.406;19.484;2024-02-26T00:06:45;6.60;99.90
19952;DHT22;10137;49.406;19.484;2024-02-26T00:09:11;6.50;99.90
19952;DHT22;10137;49.406;19.484;2024-02-26T00:11:38;6.40;99.90
19952;DHT22;10137;49.406;19.484;2024-02-26T00:14:05;6.30;99.90
19952;DHT22;10137;49.406;19.484;2024-02-26T00:16:32;6.30;99.90
19952;DHT22;10137;49.406;19.484;2024-02-26T00:18:59;6.30;99.90
19952;DHT22;10137;49.406;19.484;2024-02-26T00:21:28;6.30;99.90
19952;DHT22;10137;49.406;19.484;2024-02-26T00:23:55;6.20;99.90
19952;DHT22;10137;49.406;19.484;2024-02-26T00:26:21;6.20;99.90
19952;DHT22;10137;49.406;19.484;2024-02-26T00:28:48;6.10;99.90
19952;DHT22;10137;49.406;19.484;2024-02-26T00:31:15;6.10;99.90
19952;DHT22;10137;49.406;19.484;2024-02-26T00:33:42;5.90;99.90
19952;DHT22;10137;49.406;19.484;2024-02-26T00:36:09;5.90;99.90
19952;DHT22;10137;49.406;19.484;2024-02-26T00:38:37;5.70;99.90
19952;DHT22;10137;49.406;19.484;2024-02-26T00:41:05;5.60;99.90
19952;DHT22;10137;49.406;19.484;2024-02-26T00:43:31;5.50;99.90
19952;DHT22;10137;49.406;19.484;2024-02-26T00:45:59;5.50;99.90
19952;DHT22;10137;49.406;19.484;2024-02-26T00:48:26;5.50;99.90
19952;DHT22;10137;49.406;19.484;2024-02-26T00:50:53;5.40;99.90
19952;DHT22;10137;49.406;19.484;2024-02-26T00:53:19;5.50;99.90
19952;DHT22;10137;49.406;19.484;2024-02-26T00:55:48;5.40;99.90
19952;DHT22;10137;49.406;19.484;2024-02-26T00:58:15;5.40;99.90
19952;DHT22;10137;49.406;19.484;2024-02-26T01:00:42;5.40;99.90
19952;DHT22;10137;49.406;19.484;2024-02-26T01:03:08;5.30;99.90
19952;DHT22;10137;49.406;19.484;2024-02-26T01:05:36;5.20;99.90
19952;DHT22;10137;49.406;19.484;2024-02-26T01:08:03;5.10;99.90
19952;DHT22;10137;49.406;19.484;2024-02-26T01:10:30;5.10;99.90
19952;DHT22;10137;49.406;19.484;2024-02-26T01:12:59;5.00;99.90
19952;DHT22;10137;49.406;19.484;2024-02-26T01:15:26;4.90;99.90
19952;DHT22;10137;49.406;19.484;2024-02-26T01:17:53;4.90;99.90
19952;DHT22;10137;49.406;19.484;2024-02-26T01:20:21;4.90;99.90
19952;DHT22;10137;49.406;19.484;2024-02-26T01:22:47;4.90;99.90
19952;DHT22;10137;49.406;19.484;2024-02-26T01:25:14;5.00;99.90
19952;DHT22;10137;49.406;19.484;2024-02-26T01:27:42;4.90;99.90
19952;DHT22;10137;49.406;19.484;2024-02-26T01:30:11;4.90;99.90
19952;DHT22;10137;49.406;19.484;2024-02-26T01:32:40;4.90;99.90
19952;DHT22;10137;49.406;19.484;2024-02-26T01:35:07;4.90;99.90
19952;DHT22;10137;49.406;19.484;2024-02-26T01:37:36;5.00;99.90
19952;DHT22;10137;49.406;19.484;2024-02-26T01:40:04;5.10;99.90
19952;DHT22;10137;49.406;19.484;2024-02-26T01:42:32;5.10;99.90
19952;DHT22;10137;49.406;19.484;2024-02-26T01:44:59;5.10;99.90
19952;DHT22;10137;49.406;19.484;2024-02-26T01:47:28;4.90;99.90
19952;DHT22;10137;49.406;19.484;2024-02-26T01:49:55;4.90;99.90
19952;DHT22;10137;49.406;19.484;2024-02-26T01:52:22;5.10;99.90
19952;DHT22;10137;49.406;19.484;2024-02-26T01:54:50;5.10;99.90
19952;DHT22;10137;49.406;19.484;2024-02-26T01:57:17;5.10;99.90
19952;DHT22;10137;49.406;19.484;2024-02-26T01:59:44;5.00;99.90
19952;DHT22;10137;49.406;19.484;2024-02-26T02:02:11;5.00;99.90
19952;DHT22;10137;49.406;19.484;2024-02-26T02:04:41;5.00;99.90
19952;DHT22;10137;49.406;19.484;2024-02-26T02:07:08;5.00;99.90
19952;DHT22;10137;49.406;19.484;2024-02-26T02:09:35;4.90;99.90
19952;DHT22;10137;49.406;19.484;2024-02-26T02:12:03;4.90;99.90
19952;DHT22;10137;49.406;19.484;2024-02-26T02:14:30;4.90;99.90
19952;DHT22;10137;49.406;19.484;2024-02-26T02:16:57;4.90;99.90
19952;DHT22;10137;49.406;19.484;2024-02-26T02:19:24;5.10;99.90
19952;DHT22;10137;49.406;19.484;2024-02-26T02:21:52;5.20;99.90
19952;DHT22;10137;49.406;19.484;2024-02-26T02:24:19;5.20;99.90
19952;DHT22;10137;49.406;19.484;2024-02-26T02:26:46;5.30;99.90
19952;DHT22;10137;49.406;19.484;2024-02-26T02:29:13;5.40;99.90
19952;DHT22;10137;49.406;19.484;2024-02-26T02:31:41;5.50;99.90
19952;DHT22;10137;49.406;19.484;2024-02-26T02:34:09;5.60;99.90
19952;DHT22;10137;49.406;19.484;2024-02-26T02:36:48;5.60;99.90
19952;DHT22;10137;49.406;19.484;2024-02-26T02:39:17;5.40;99.90
19952;DHT22;10137;49.406;19.484;2024-02-26T02:41:44;5.20;99.90
19952;DHT22;10137;49.406;19.484;2024-02-26T02:44:10;5.00;99.90
19952;DHT22;10137;49.406;19.484;2024-02-26T02:46:38;4.90;99.90
19952;DHT22;10137;49.406;19.484;2024-02-26T02:49:08;4.80;99.90
19952;DHT22;10137;49.406;19.484;2024-02-26T02:51:35;4.60;99.90
19952;DHT22;10137;49.406;19.484;2024-02-26T02:54:02;4.60;99.90
19952;DHT22;10137;49.406;19.484;2024-02-26T02:56:30;4.60;99.90
19952;DHT22;10137;49.406;19.484;2024-02-26T02:58:57;4.60;99.90
19952;DHT22;10137;49.406;19.484;2024-02-26T03:01:24;4.50;99.90
19952;DHT22;10137;49.406;19.484;2024-02-26T03:03:51;4.50;99.90
19952;DHT22;10137;49.406;19.484;2024-02-26T03:06:17;4.40;99.90
19952;DHT22;10137;49.406;19.484;2024-02-26T03:08:46;4.30;99.90
19952;DHT22;10137;49.406;19.484;2024-02-26T03:11:13;4.30;99.90
19952;DHT22;10137;49.406;19.484;2024-02-26T03:13:42;4.30;99.90
19952;DHT22;10137;49.406;19.484;2024-02-26T03:16:09;4.30;99.90
19952;DHT22;10137;49.406;19.484;2024-02-26T03:18:38;4.30;99.90
19952;DHT22;10137;49.406;19.484;2024-02-26T03:21:05;4.30;99.90
19952;DHT22;10137;49.406;19.484;2024-02-26T03:23:32;4.30;99.90
19952;DHT22;10137;49.406;19.484;2024-02-26T03:26:02;4.20;99.90
19952;DHT22;10137;49.406;19.484;2024-02-26T03:28:30;4.20;99.90
19952;DHT22;10137;49.406;19.484;2024-02-26T03:31:00;4.10;99.90
19952;DHT22;10137;49.406;19.484;2024-02-26T03:33:27;4.10;99.90
19952;DHT22;10137;49.406;19.484;2024-02-26T03:35:54;4.10;99.90
19952;DHT22;10137;49.406;19.484;2024-02-26T03:38:21;4.10;99.90
19952;DHT22;10137;49.406;19.484;2024-02-26T03:40:48;4.00;99.90
19952;DHT22;10137;49.406;19.484;2024-02-26T03:43:16;4.00;99.90
19952;DHT22;10137;49.406;19.484;2024-02-26T03:45:43;4.10;99.90
19952;DHT22;10137;49.406;19.484;2024-02-26T03:48:11;4.10;99.90
19952;DHT22;10137;49.406;19.484;2024-02-26T03:50:38;4.10;99.90
19952;DHT22;10137;49.406;19.484;2024-02-26T03:53:05;4.00;99.90
19952;DHT22;10137;49.406;19.484;2024-02-26T03:55:34;4.00;99.90
19952;DHT22;10137;49.406;19.484;2024-02-26T03:58:01;4.00;99.90
19952;DHT22;10137;49.406;19.484;2024-02-26T04:00:28;3.90;99.90
19952;DHT22;10137;49.406;19.484;2024-02-26T04:02:55;3.90;99.90
19952;DHT22;10137;49.406;19.484;2024-02-26T04:05:24;3.90;99.90
19952;DHT22;10137;49.406;19.484;2024-02-26T04:07:50;3.70;99.90
19952;DHT22;10137;49.406;19.484;2024-02-26T04:10:17;3.60;99.90
19952;DHT22;10137;49.406;19.484;2024-02-26T04:12:45;3.50;99.90
19952;DHT22;10137;49.406;19.484;2024-02-26T04:15:12;3.50;99.90
19952;DHT22;10137;49.406;19.484;2024-02-26T04:17:39;3.40;99.90
19952;DHT22;10137;49.406;19.484;2024-02-26T04:20:07;3.30;99.90
19952;DHT22;10137;49.406;19.484;2024-02-26T04:22:36;3.20;99.90
19952;DHT22;10137;49.406;19.484;2024-02-26T04:25:03;3.30;99.90
19952;DHT22;10137;49.406;19.484;2024-02-26T04:27:30;3.30;99.90
19952;DHT22;10137;49.406;19.484;2024-02-26T04:29:57;3.30;99.90
19952;DHT22;10137;49.406;19.484;2024-02-26T04:32:24;3.30;99.90
19952;DHT22;10137;49.406;19.484;2024-02-26T04:34:51;3.40;99.90
19952;DHT22;10137;49.406;19.484;2024-02-26T04:37:18;3.40;99.90
19952;DHT22;10137;49.406;19.484;2024-02-26T04:39:46;3.50;99.90
19952;DHT22;10137;49.406;19.484;2024-02-26T04:42:13;3.50;99.90
19952;DHT22;10137;49.406;19.484;2024-02-26T04:44:40;3.60;99.90
19952;DHT22;10137;49.406;19.484;2024-02-26T04:47:07;3.60;99.90
19952;DHT22;10137;49.406;19.484;2024-02-26T04:49:34;3.60;99.90
19952;DHT22;10137;49.406;19.484;2024-02-26T04:52:01;3.60;99.90
19952;DHT22;10137;49.406;19.484;2024-02-26T04:54:28;3.70;99.90
19952;DHT22;10137;49.406;19.484;2024-02-26T04:56:56;3.60;99.90
19952;DHT22;10137;49.406;19.484;2024-02-26T04:59:23;3.70;99.90
19952;DHT22;10137;49.406;19.484;2024-02-26T05:01:50;3.60;99.90
19952;DHT22;10137;49.406;19.484;2024-02-26T05:04:18;3.60;99.90
19952;DHT22;10137;49.406;19.484;2024-02-26T05:06:45;3.50;99.90
19952;DHT22;10137;49.406;19.484;2024-02-26T05:09:11;3.50;99.90
19952;DHT22;10137;49.406;19.484;2024-02-26T05:11:38;3.40;99.90
19952;DHT22;10137;49.406;19.484;2024-02-26T05:14:08;3.30;99.90
19952;DHT22;10137;49.406;19.484;2024-02-26T05:16:35;3.50;99.90
19952;DHT22;10137;49.406;19.484;2024-02-26T05:19:02;3.50;99.90
19952;DHT22;10137;49.406;19.484;2024-02-26T05:21:29;3.60;99.90
19952;DHT22;10137;49.406;19.484;2024-02-26T05:23:56;3.50;99.90
19952;DHT22;10137;49.406;19.484;2024-02-26T05:26:23;3.40;99.90
19952;DHT22;10137;49.406;19.484;2024-02-26T05:28:50;3.50;99.90
19952;DHT22;10137;49.406;19.484;2024-02-26T05:31:19;3.60;99.90
19952;DHT22;10137;49.406;19.484;2024-02-26T05:33:46;3.60;99.90
19952;DHT22;10137;49.406;19.484;2024-02-26T05:36:18;3.60;99.90
19952;DHT22;10137;49.406;19.484;2024-02-26T05:38:45;3.60;99.90
19952;DHT22;10137;49.406;19.484;2024-02-26T05:41:12;3.60;99.90
19952;DHT22;10137;49.406;19.484;2024-02-26T05:43:39;3.70;99.90
19952;DHT22;10137;49.406;19.484;2024-02-26T05:46:06;3.70;99.90
19952;DHT22;10137;49.406;19.484;2024-02-26T05:48:34;3.70;99.90
19952;DHT22;10137;49.406;19.484;2024-02-26T05:51:01;3.80;99.90
19952;DHT22;10137;49.406;19.484;2024-02-26T05:53:28;3.70;99.90
19952;DHT22;10137;49.406;19.484;2024-02-26T05:55:55;3.60;99.90
19952;DHT22;10137;49.406;19.484;2024-02-26T05:58:22;3.50;99.90
19952;DHT22;10137;49.406;19.484;2024-02-26T06:00:49;3.60;99.90
19952;DHT22;10137;49.406;19.484;2024-02-26T06:03:16;3.50;99.90
19952;DHT22;10137;49.406;19.484;2024-02-26T06:05:44;3.50;99.90
19952;DHT22;10137;49.406;19.484;2024-02-26T06:08:11;3.50;99.90
19952;DHT22;10137;49.406;19.484;2024-02-26T06:10:38;3.60;99.90
19952;DHT22;10137;49.406;19.484;2024-02-26T06:13:05;3.60;99.90
19952;DHT22;10137;49.406;19.484;2024-02-26T06:15:32;3.60;99.90
19952;DHT22;10137;49.406;19.484;2024-02-26T06:17:59;3.70;99.90
19952;DHT22;10137;49.406;19.484;2024-02-26T06:20:25;3.70;99.90
19952;DHT22;10137;49.406;19.484;2024-02-26T06:22:54;3.70;99.90
19952;DHT22;10137;49.406;19.484;2024-02-26T06:25:21;3.60;99.90
19952;DHT22;10137;49.406;19.484;2024-02-26T06:27:47;3.70;99.90
19952;DHT22;10137;49.406;19.484;2024-02-26T06:30:14;3.70;99.90
19952;DHT22;10137;49.406;19.484;2024-02-26T06:32:41;3.80;99.90
19952;DHT22;10137;49.406;19.484;2024-02-26T06:35:09;3.80;99.90
19952;DHT22;10137;49.406;19.484;2024-02-26T06:37:37;3.90;99.90
19952;DHT22;10137;49.406;19.484;2024-02-26T06:40:06;3.90;99.90
19952;DHT22;10137;49.406;19.484;2024-02-26T06:42:33;3.90;99.90
19952;DHT22;10137;49.406;19.484;2024-02-26T06:45:01;4.00;99.90
19952;DHT22;10137;49.406;19.484;2024-02-26T06:47:29;4.00;99.90
19952;DHT22;10137;49.406;19.484;2024-02-26T06:49:56;4.20;99.90
19952;DHT22;10137;49.406;19.484;2024-02-26T06:52:24;4.20;99.90
19952;DHT22;10137;49.406;19.484;2024-02-26T06:54:51;4.20;99.90
19952;DHT22;10137;49.406;19.484;2024-02-26T06:57:20;4.20;99.90
19952;DHT22;10137;49.406;19.484;2024-02-26T06:59:47;4.20;99.90
19952;DHT22;10137;49.406;19.484;2024-02-26T07:02:14;4.20;99.90
19952;DHT22;10137;49.406;19.484;2024-02-26T07:04:41;4.20;99.90
19952;DHT22;10137;49.406;19.484;2024-02-26T07:07:08;4.20;99.90
19952;DHT22;10137;49.406;19.484;2024-02-26T07:09:36;4.20;99.90
19952;DHT22;10137;49.406;19.484;2024-02-26T07:12:03;4.20;99.90
19952;DHT22;10137;49.406;19.484;2024-02-26T07:14:31;4.20;99.90
19952;DHT22;10137;49.406;19.484;2024-02-26T07:16:59;4.20;99.90
19952;DHT22;10137;49.406;19.484;2024-02-26T07:19:26;4.30;99.90
19952;DHT22;10137;49.406;19.484;2024-02-26T07:21:53;4.30;99.90
19952;DHT22;10137;49.406;19.484;2024-02-26T07:24:19;4.30;99.90
19952;DHT22;10137;49.406;19.484;2024-02-26T07:26:46;4.30;99.90
19952;DHT22;10137;49.406;19.484;2024-02-26T07:29:14;4.40;99.90
19952;DHT22;10137;49.406;19.484;2024-02-26T07:31:43;4.40;99.90
19952;DHT22;10137;49.406;19.484;2024-02-26T07:34:09;4.30;99.90
19952;DHT22;10137;49.406;19.484;2024-02-26T07:36:37;4.30;99.90
19952;DHT22;10137;49.406;19.484;2024-02-26T07:39:03;4.20;99.90
19952;DHT22;10137;49.406;19.484;2024-02-26T07:41:30;4.20;99.90
19952;DHT22;10137;49.406;19.484;2024-02-26T07:43:57;4.20;99.90
19952;DHT22;10137;49.406;19.484;2024-02-26T07:46:24;4.20;99.90
19952;DHT22;10137;49.406;19.484;2024-02-26T07:48:53;4.20;99.90
19952;DHT22;10137;49.406;19.484;2024-02-26T07:51:19;4.20;99.90
19952;DHT22;10137;49.406;19.484;2024-02-26T07:53:48;4.20;99.90
19952;DHT22;10137;49.406;19.484;2024-02-26T07:56:14;4.30;99.90
19952;DHT22;10137;49.406;19.484;2024-02-26T07:58:42;4.30;99.90
19952;DHT22;10137;49.406;19.484;2024-02-26T08:01:08;4.30;99.90
19952;DHT22;10137;49.406;19.484;2024-02-26T08:03:37;4.40;99.90
19952;DHT22;10137;49.406;19.484;2024-02-26T08:06:05;4.40;99.90
19952;DHT22;10137;49.406;19.484;2024-02-26T08:08:32;4.40;99.90
19952;DHT22;10137;49.406;19.484;2024-02-26T08:10:59;4.60;99.90
19952;DHT22;10137;49.406;19.484;2024-02-26T08:13:26;4.60;99.90
19952;DHT22;10137;49.406;19.484;2024-02-26T08:15:53;4.60;99.90
19952;DHT22;10137;49.406;19.484;2024-02-26T08:18:20;4.60;99.90
19952;DHT22;10137;49.406;19.484;2024-02-26T08:20:47;4.60;99.90
19952;DHT22;10137;49.406;19.484;2024-02-26T08:23:17;4.70;99.90
19952;DHT22;10137;49.406;19.484;2024-02-26T08:25:44;4.70;99.90
19952;DHT22;10137;49.406;19.484;2024-02-26T08:28:11;4.80;99.90
19952;DHT22;10137;49.406;19.484;2024-02-26T08:30:38;4.80;99.90
19952;DHT22;10137;49.406;19.484;2024-02-26T08:33:05;4.90;99.90
19952;DHT22;10137;49.406;19.484;2024-02-26T08:35:32;5.00;99.90
19952;DHT22;10137;49.406;19.484;2024-02-26T08:37:59;5.10;99.90
19952;DHT22;10137;49.406;19.484;2024-02-26T08:40:27;5.20;99.90
19952;DHT22;10137;49.406;19.484;2024-02-26T08:42:54;5.30;99.90
19952;DHT22;10137;49.406;19.484;2024-02-26T08:45:21;5.30;99.90
19952;DHT22;10137;49.406;19.484;2024-02-26T08:47:48;5.40;99.90
19952;DHT22;10137;49.406;19.484;2024-02-26T08:50:15;5.50;99.90
19952;DHT22;10137;49.406;19.484;2024-02-26T08:52:42;5.50;99.90
19952;DHT22;10137;49.406;19.484;2024-02-26T08:55:09;5.50;99.90
19952;DHT22;10137;49.406;19.484;2024-02-26T08:57:37;5.60;99.90
19952;DHT22;10137;49.406;19.484;2024-02-26T09:00:05;5.70;99.90
19952;DHT22;10137;49.406;19.484;2024-02-26T09:02:32;5.60;99.90
19952;DHT22;10137;49.406;19.484;2024-02-26T09:04:59;5.70;99.90
19952;DHT22;10137;49.406;19.484;2024-02-26T09:07:26;5.70;99.90
19952;DHT22;10137;49.406;19.484;2024-02-26T09:09:54;5.70;99.90
19952;DHT22;10137;49.406;19.484;2024-02-26T09:12:21;5.70;99.90
19952;DHT22;10137;49.406;19.484;2024-02-26T09:14:49;5.70;99.90
19952;DHT22;10137;49.406;19.484;2024-02-26T09:17:16;5.80;99.90
19952;DHT22;10137;49.406;19.484;2024-02-26T09:19:43;5.80;99.90
19952;DHT22;10137;49.406;19.484;2024-02-26T09:22:10;5.90;99.90
19952;DHT22;10137;49.406;19.484;2024-02-26T09:24:37;5.90;99.90
19952;DHT22;10137;49.406;19.484;2024-02-26T09:27:04;5.90;99.90
19952;DHT22;10137;49.406;19.484;2024-02-26T09:29:31;5.90;99.90
19952;DHT22;10137;49.406;19.484;2024-02-26T09:32:00;5.90;99.90
19952;DHT22;10137;49.406;19.484;2024-02-26T09:34:27;6.00;99.90
19952;DHT22;10137;49.406;19.484;2024-02-26T09:36:54;6.00;99.90
19952;DHT22;10137;49.406;19.484;2024-02-26T09:39:20;6.00;99.90
19952;DHT22;10137;49.406;19.484;2024-02-26T09:41:48;6.10;99.90
19952;DHT22;10137;49.406;19.484;2024-02-26T09:44:18;6.00;99.90
19952;DHT22;10137;49.406;19.484;2024-02-26T09:46:47;5.90;99.90
19952;DHT22;10137;49.406;19.484;2024-02-26T09:49:16;5.90;99.90
19952;DHT22;10137;49.406;19.484;2024-02-26T09:51:43;5.90;99.90
19952;DHT22;10137;49.406;19.484;2024-02-26T09:54:10;5.90;99.90
19952;DHT22;10137;49.406;19.484;2024-02-26T09:56:39;5.90;99.90
19952;DHT22;10137;49.406;19.484;2024-02-26T09:59:17;5.90;99.90
19952;DHT22;10137;49.406;19.484;2024-02-26T10:01:44;6.00;99.90
19952;DHT22;10137;49.406;19.484;2024-02-26T10:04:14;6.00;99.90
19952;DHT22;10137;49.406;19.484;2024-02-26T10:06:41;6.00;99.90
19952;DHT22;10137;49.406;19.484;2024-02-26T10:09:10;6.10;99.90
19952;DHT22;10137;49.406;19.484;2024-02-26T10:11:38;6.20;99.90
19952;DHT22;10137;49.406;19.484;2024-02-26T10:14:08;6.20;99.90
19952;DHT22;10137;49.406;19.484;2024-02-26T10:16:35;6.20;99.90
19952;DHT22;10137;49.406;19.484;2024-02-26T10:19:03;6.20;99.90
19952;DHT22;10137;49.406;19.484;2024-02-26T10:21:31;6.20;99.90
19952;DHT22;10137;49.406;19.484;2024-02-26T10:23:58;6.30;99.90
19952;DHT22;10137;49.406;19.484;2024-02-26T10:26:25;6.30;99.90
19952;DHT22;10137;49.406;19.484;2024-02-26T10:28:52;6.40;99.90
19952;DHT22;10137;49.406;19.484;2024-02-26T10:31:19;6.50;99.90
19952;DHT22;10137;49.406;19.484;2024-02-26T10:33:46;6.60;99.90
19952;DHT22;10137;49.406;19.484;2024-02-26T10:36:13;6.70;99.90
19952;DHT22;10137;49.406;19.484;2024-02-26T10:38:41;6.70;99.90
19952;DHT22;10137;49.406;19.484;2024-02-26T10:41:13;6.80;99.90
19952;DHT22;10137;49.406;19.484;2024-02-26T10:43:42;6.90;99.90
19952;DHT22;10137;49.406;19.484;2024-02-26T10:46:09;7.00;99.90
19952;DHT22;10137;49.406;19.484;2024-02-26T10:48:36;7.00;99.90
19952;DHT22;10137;49.406;19.484;2024-02-26T10:51:04;7.10;99.90
19952;DHT22;10137;49.406;19.484;2024-02-26T10:53:31;7.10;99.90
19952;DHT22;10137;49.406;19.484;2024-02-26T10:56:03;7.10;99.90
19952;DHT22;10137;49.406;19.484;2024-02-26T10:58:31;7.10;99.90
19952;DHT22;10137;49.406;19.484;2024-02-26T11:00:58;7.10;99.90
19952;DHT22;10137;49.406;19.484;2024-02-26T11:03:26;7.10;99.90
19952;DHT22;10137;49.406;19.484;2024-02-26T11:05:54;7.10;99.90
19952;DHT22;10137;49.406;19.484;2024-02-26T11:08:22;7.10;99.90
19952;DHT22;10137;49.406;19.484;2024-02-26T11:10:53;7.10;99.90
19952;DHT22;10137;49.406;19.484;2024-02-26T11:13:21;7.10;99.90
19952;DHT22;10137;49.406;19.484;2024-02-26T11:15:51;7.10;99.90
19952;DHT22;10137;49.406;19.484;2024-02-26T11:18:21;7.00;99.90
19952;DHT22;10137;49.406;19.484;2024-02-26T11:20:49;7.10;99.90
19952;DHT22;10137;49.406;19.484;2024-02-26T11:23:17;7.10;99.90
19952;DHT22;10137;49.406;19.484;2024-02-26T11:25:44;7.20;99.90
19952;DHT22;10137;49.406;19.484;2024-02-26T11:28:15;7.20;99.90
19952;DHT22;10137;49.406;19.484;2024-02-26T11:30:47;7.20;99.90
19952;DHT22;10137;49.406;19.484;2024-02-26T11:33:15;7.20;99.90
19952;DHT22;10137;49.406;19.484;2024-02-26T11:35:43;7.20;99.90
19952;DHT22;10137;49.406;19.484;2024-02-26T11:38:17;7.20;99.90
19952;DHT22;10137;49.406;19.484;2024-02-26T11:40:46;7.30;99.90
19952;DHT22;10137;49.406;19.484;2024-02-26T11:43:14;7.40;99.90
19952;DHT22;10137;49.406;19.484;2024-02-26T11:45:54;7.40;99.90
19952;DHT22;10137;49.406;19.484;2024-02-26T11:48:25;7.50;99.90
19952;DHT22;10137;49.406;19.484;2024-02-26T11:50:55;7.50;99.90
19952;DHT22;10137;49.406;19.484;2024-02-26T11:53:26;7.50;99.90
19952;DHT22;10137;49.406;19.484;2024-02-26T11:56:13;7.50;99.90
19952;DHT22;10137;49.406;19.484;2024-02-26T11:58:40;7.50;99.90
19952;DHT22;10137;49.406;19.484;2024-02-26T12:01:41;7.30;99.90
19952;DHT22;10137;49.406;19.484;2024-02-26T12:04:12;7.30;99.90
19952;DHT22;10137;49.406;19.484;2024-02-26T12:06:42;7.30;99.90
19952;DHT22;10137;49.406;19.484;2024-02-26T12:09:09;7.40;99.90
19952;DHT22;10137;49.406;19.484;2024-02-26T12:11:38;7.50;99.90
19952;DHT22;10137;49.406;19.484;2024-02-26T12:14:07;7.50;99.90
19952;DHT22;10137;49.406;19.484;2024-02-26T12:16:36;7.50;99.90
19952;DHT22;10137;49.406;19.484;2024-02-26T12:19:07;7.50;99.90
19952;DHT22;10137;49.406;19.484;2024-02-26T12:21:36;7.50;99.90
19952;DHT22;10137;49.406;19.484;2024-02-26T12:24:14;7.60;99.90
19952;DHT22;10137;49.406;19.484;2024-02-26T12:26:41;7.60;99.90
19952;DHT22;10137;49.406;19.484;2024-02-26T12:29:09;7.60;99.90
19952;DHT22;10137;49.406;19.484;2024-02-26T12:31:37;7.70;99.90
19952;DHT22;10137;49.406;19.484;2024-02-26T12:34:06;7.70;99.90
19952;DHT22;10137;49.406;19.484;2024-02-26T12:36:35;7.70;99.90
19952;DHT22;10137;49.406;19.484;2024-02-26T12:39:01;7.80;99.90
19952;DHT22;10137;49.406;19.484;2024-02-26T12:41:31;7.80;99.90
19952;DHT22;10137;49.406;19.484;2024-02-26T12:43:58;7.80;99.90
19952;DHT22;10137;49.406;19.484;2024-02-26T12:46:26;7.90;99.90
19952;DHT22;10137;49.406;19.484;2024-02-26T12:48:55;8.00;99.90
19952;DHT22;10137;49.406;19.484;2024-02-26T12:51:25;7.90;99.90
19952;DHT22;10137;49.406;19.484;2024-02-26T12:53:53;8.00;99.90
19952;DHT22;10137;49.406;19.484;2024-02-26T12:56:21;8.00;99.90
19952;DHT22;10137;49.406;19.484;2024-02-26T12:58:50;8.10;99.90
19952;DHT22;10137;49.406;19.484;2024-02-26T13:01:23;8.10;99.90
19952;DHT22;10137;49.406;19.484;2024-02-26T13:03:51;8.10;99.90
19952;DHT22;10137;49.406;19.484;2024-02-26T13:06:19;8.20;99.90
19952;DHT22;10137;49.406;19.484;2024-02-26T13:08:49;8.20;99.90
19952;DHT22;10137;49.406;19.484;2024-02-26T13:11:16;8.20;99.90
19952;DHT22;10137;49.406;19.484;2024-02-26T13:13:47;8.20;99.90
19952;DHT22;10137;49.406;19.484;2024-02-26T13:16:15;8.20;99.90
19952;DHT22;10137;49.406;19.484;2024-02-26T13:18:45;8.20;99.90
19952;DHT22;10137;49.406;19.484;2024-02-26T13:21:14;8.10;99.90
19952;DHT22;10137;49.406;19.484;2024-02-26T13:23:43;8.10;99.90
19952;DHT22;10137;49.406;19.484;2024-02-26T13:26:13;8.10;99.90
19952;DHT22;10137;49.406;19.484;2024-02-26T13:28:40;8.10;99.90
19952;DHT22;10137;49.406;19.484;2024-02-26T13:31:08;8.10;99.90
19952;DHT22;10137;49.406;19.484;2024-02-26T13:33:35;8.20;99.90
19952;DHT22;10137;49.406;19.484;2024-02-26T13:36:03;8.30;99.90
19952;DHT22;10137;49.406;19.484;2024-02-26T13:38:30;8.30;99.90
19952;DHT22;10137;49.406;19.484;2024-02-26T13:40:57;8.30;99.90
19952;DHT22;10137;49.406;19.484;2024-02-26T13:43:26;8.40;99.90
19952;DHT22;10137;49.406;19.484;2024-02-26T13:45:52;8.40;99.90
19952;DHT22;10137;49.406;19.484;2024-02-26T13:48:19;8.40;99.90
19952;DHT22;10137;49.406;19.484;2024-02-26T13:50:46;8.50;99.90
19952;DHT22;10137;49.406;19.484;2024-02-26T13:53:13;8.50;99.90
19952;DHT22;10137;49.406;19.484;2024-02-26T13:55:40;8.50;99.90
19952;DHT22;10137;49.406;19.484;2024-02-26T13:58:08;8.50;99.90
19952;DHT22;10137;49.406;19.484;2024-02-26T14:00:39;8.50;99.90
19952;DHT22;10137;49.406;19.484;2024-02-26T14:03:07;8.50;99.90
19952;DHT22;10137;49.406;19.484;2024-02-26T14:05:34;8.40;99.90
19952;DHT22;10137;49.406;19.484;2024-02-26T14:08:01;8.30;99.90
19952;DHT22;10137;49.406;19.484;2024-02-26T14:10:28;8.30;99.90
19952;DHT22;10137;49.406;19.484;2024-02-26T14:12:55;8.20;99.90
19952;DHT22;10137;49.406;19.484;2024-02-26T14:15:22;8.20;99.90
19952;DHT22;10137;49.406;19.484;2024-02-26T14:17:51;8.30;99.90
19952;DHT22;10137;49.406;19.484;2024-02-26T14:20:22;8.30;99.90
19952;DHT22;10137;49.406;19.484;2024-02-26T14:22:49;8.40;99.90
19952;DHT22;10137;49.406;19.484;2024-02-26T14:25:18;8.40;99.90
19952;DHT22;10137;49.406;19.484;2024-02-26T14:27:45;8.50;99.90
19952;DHT22;10137;49.406;19.484;2024-02-26T14:30:13;8.50;99.90
19952;DHT22;10137;49.406;19.484;2024-02-26T14:32:40;8.50;99.90
19952;DHT22;10137;49.406;19.484;2024-02-26T14:35:09;8.60;99.90
19952;DHT22;10137;49.406;19.484;2024-02-26T14:37:36;8.70;99.90
19952;DHT22;10137;49.406;19.484;2024-02-26T14:40:03;8.70;99.90
19952;DHT22;10137;49.406;19.484;2024-02-26T14:42:30;8.80;99.90
19952;DHT22;10137;49.406;19.484;2024-02-26T14:44:57;8.90;99.90
19952;DHT22;10137;49.406;19.484;2024-02-26T14:47:25;8.90;99.90
19952;DHT22;10137;49.406;19.484;2024-02-26T14:49:52;9.00;99.90
19952;DHT22;10137;49.406;19.484;2024-02-26T14:52:20;9.00;99.90
19952;DHT22;10137;49.406;19.484;2024-02-26T14:54:47;9.00;99.90
19952;DHT22;10137;49.406;19.484;2024-02-26T14:57:14;9.00;99.90
19952;DHT22;10137;49.406;19.484;2024-02-26T14:59:41;9.10;99.90
19952;DHT22;10137;49.406;19.484;2024-02-26T15:02:07;9.10;99.90
19952;DHT22;10137;49.406;19.484;2024-02-26T15:04:36;9.00;99.90
19952;DHT22;10137;49.406;19.484;2024-02-26T15:07:03;9.00;99.90
19952;DHT22;10137;49.406;19.484;2024-02-26T15:09:32;9.00;99.90
19952;DHT22;10137;49.406;19.484;2024-02-26T15:12:01;9.10;99.90
19952;DHT22;10137;49.406;19.484;2024-02-26T15:14:30;9.20;99.90
19952;DHT22;10137;49.406;19.484;2024-02-26T15:16:57;9.20;99.90
19952;DHT22;10137;49.406;19.484;2024-02-26T15:19:24;9.30;99.90
19952;DHT22;10137;49.406;19.484;2024-02-26T15:21:51;9.30;99.90
19952;DHT22;10137;49.406;19.484;2024-02-26T15:24:18;9.40;99.90
19952;DHT22;10137;49.406;19.484;2024-02-26T15:26:46;9.30;99.90
19952;DHT22;10137;49.406;19.484;2024-02-26T15:29:13;9.40;99.90
19952;DHT22;10137;49.406;19.484;2024-02-26T15:31:40;9.40;99.90
19952;DHT22;10137;49.406;19.484;2024-02-26T15:34:06;9.40;99.90